createdAt,value
2019-05-23T00:00:57.548Z,7.73
2019-05-23T00:03:34.313Z,7.73
2019-05-23T00:06:17.827Z,7.73
2019-05-23T00:08:47.360Z,7.71
2019-05-23T00:11:40.142Z,7.62
2019-05-23T00:14:12.565Z,7.76
2019-05-23T00:16:46.298Z,7.78
2019-05-23T00:19:14.896Z,7.79
2019-05-23T00:21:43.954Z,7.68
2019-05-23T00:24:13.111Z,7.70
2019-05-23T00:26:42.702Z,7.67
2019-05-23T00:29:12.565Z,7.64
2019-05-23T00:31:49.355Z,7.63
2019-05-23T00:34:21.838Z,7.64
2019-05-23T00:36:51.216Z,7.56
2019-05-23T00:39:20.072Z,7.55
2019-05-23T00:41:52.265Z,7.50
2019-05-23T00:44:25.278Z,7.47
2019-05-23T00:46:54.678Z,7.42
2019-05-23T00:49:24.675Z,7.58
2019-05-23T00:51:57.185Z,7.48
2019-05-23T00:54:25.211Z,7.44
2019-05-23T00:56:54.835Z,7.48
2019-05-23T00:59:27.274Z,7.50
2019-05-23T01:01:53.684Z,7.55
2019-05-23T01:04:28.577Z,7.40
2019-05-23T01:06:58.876Z,7.32
2019-05-23T01:09:30.394Z,7.25
2019-05-23T01:12:03.037Z,7.19
2019-05-23T01:14:33.438Z,7.19
2019-05-23T01:17:02.312Z,7.20
2019-05-23T01:19:30.798Z,7.07
2019-05-23T01:22:04.700Z,7.16
2019-05-23T01:24:39.845Z,7.11
2019-05-23T01:27:08.955Z,7.06
2019-05-23T01:29:40.001Z,7.02
2019-05-23T01:32:16.965Z,6.99
2019-05-23T01:34:49.362Z,7.02
2019-05-23T01:37:18.128Z,6.99
2019-05-23T01:39:46.570Z,6.93
2019-05-23T01:42:19.506Z,6.85
2019-05-23T01:44:50.614Z,6.91
2019-05-23T01:47:20.194Z,7.00
2019-05-23T01:49:53.858Z,7.03
2019-05-23T01:52:22.307Z,7.16
2019-05-23T01:54:50.924Z,7.21
2019-05-23T01:57:19.784Z,7.23
2019-05-23T01:59:48.388Z,7.26
2019-05-23T02:02:18.627Z,7.31
2019-05-23T02:04:50.787Z,7.33
2019-05-23T02:07:20.757Z,7.43
2019-05-23T02:09:50.380Z,7.47
2019-05-23T02:12:21.903Z,7.48
2019-05-23T02:14:50.500Z,7.56
2019-05-23T02:17:19.331Z,7.58
2019-05-23T02:19:48.016Z,7.58
2019-05-23T02:22:18.276Z,7.59
2019-05-23T02:24:49.567Z,7.64
2019-05-23T02:27:18.842Z,7.70
2019-05-23T02:29:47.345Z,7.60
2019-05-23T02:32:16.517Z,7.59
2019-05-23T02:34:47.824Z,7.63
2019-05-23T02:37:20.687Z,7.55
2019-05-23T02:39:57.645Z,7.60
2019-05-23T02:42:34.597Z,7.64
2019-05-23T02:45:06.998Z,7.65
2019-05-23T02:47:44.382Z,7.63
2019-05-23T02:50:25.406Z,7.63
2019-05-23T02:52:59.098Z,7.58
2019-05-23T02:55:32.233Z,7.61
2019-05-23T02:58:18.497Z,7.58
2019-05-23T03:00:56.288Z,7.48
2019-05-23T03:03:29.425Z,7.45
2019-05-23T03:05:59.551Z,7.40
2019-05-23T03:08:29.550Z,7.43
2019-05-23T03:11:05.173Z,7.43
2019-05-23T03:13:33.781Z,7.44
2019-05-23T03:16:07.159Z,7.36
2019-05-23T03:18:42.205Z,7.42
2019-05-23T03:21:12.619Z,7.38
2019-05-23T03:23:44.922Z,7.35
2019-05-23T03:26:34.344Z,7.40
2019-05-23T03:29:04.747Z,7.34
2019-05-23T03:31:36.319Z,7.36
2019-05-23T03:34:11.571Z,7.42
2019-05-23T03:36:40.790Z,7.46
2019-05-23T03:39:11.218Z,7.46
2019-05-23T03:41:40.520Z,7.49
2019-05-23T03:44:16.248Z,7.52
2019-05-23T03:46:50.197Z,7.51
2019-05-23T03:49:19.398Z,7.51
2019-05-23T03:51:58.799Z,7.50
2019-05-23T03:54:29.857Z,7.52
2019-05-23T03:56:59.542Z,7.56
2019-05-23T03:59:30.561Z,7.71
2019-05-23T04:02:01.735Z,7.81
2019-05-23T04:04:39.266Z,7.83
2019-05-23T04:07:11.771Z,7.96
2019-05-23T04:09:39.637Z,8.10
2019-05-23T04:12:16.690Z,8.17
2019-05-23T04:14:47.808Z,8.32
2019-05-23T04:17:32.488Z,8.58
2019-05-23T04:20:05.408Z,8.62
2019-05-23T04:24:40.080Z,8.82
2019-05-23T04:25:38.343Z,8.91
2019-05-23T04:28:20.854Z,9.09
2019-05-23T04:31:02.805Z,9.16
2019-05-23T04:34:02.751Z,9.19
2019-05-23T04:36:21.746Z,9.22
2019-05-23T04:39:22.682Z,9.38
2019-05-23T04:41:40.850Z,9.42
2019-05-23T04:44:10.750Z,9.45
2019-05-23T04:47:16.226Z,9.50
2019-05-23T04:49:27.265Z,9.55
2019-05-23T04:52:04.959Z,9.56
2019-05-23T04:54:39.909Z,9.54
2019-05-23T04:57:14.397Z,9.66
2019-05-23T04:59:49.610Z,9.73
2019-05-23T05:02:27.327Z,9.87
2019-05-23T05:05:03.504Z,10.11
2019-05-23T05:07:38.582Z,10.35
2019-05-23T05:10:12.586Z,10.58
2019-05-23T05:12:43.011Z,10.98
2019-05-23T05:15:13.727Z,12.22
2019-05-23T05:17:45.660Z,13.59
2019-05-23T05:20:17.695Z,13.59
2019-05-23T05:22:55.918Z,13.96
2019-05-23T05:25:24.989Z,14.24
2019-05-23T05:27:53.417Z,13.89
2019-05-23T05:30:26.078Z,13.52
2019-05-23T05:32:57.513Z,13.61
2019-05-23T05:35:30.142Z,13.78
2019-05-23T05:37:59.692Z,13.37
2019-05-23T05:40:30.679Z,13.26
2019-05-23T05:42:59.687Z,13.43
2019-05-23T05:45:29.340Z,13.01
2019-05-23T05:48:02.685Z,13.05
2019-05-23T05:50:35.743Z,13.84
2019-05-23T05:53:07.933Z,14.15
2019-05-23T05:55:36.465Z,14.21
2019-05-23T05:58:05.329Z,14.09
2019-05-23T06:00:35.422Z,14.56
2019-05-23T06:03:05.767Z,15.35
2019-05-23T06:05:56.169Z,16.36
2019-05-23T06:08:26.242Z,16.86
2019-05-23T06:10:54.863Z,17.36
2019-05-23T06:13:23.556Z,17.40
2019-05-23T06:15:53.043Z,17.99
2019-05-23T06:18:21.720Z,17.86
2019-05-23T06:20:50.390Z,18.18
2019-05-23T06:23:20.084Z,18.25
2019-05-23T06:25:48.635Z,19.07
2019-05-23T06:28:19.569Z,20.21
2019-05-23T06:30:49.637Z,21.30
2019-05-23T06:33:23.249Z,23.16
2019-05-23T06:35:49.119Z,24.22
2019-05-23T06:38:17.595Z,24.84
2019-05-23T06:40:46.589Z,25.83
2019-05-23T06:43:15.486Z,25.28
2019-05-23T06:45:44.784Z,26.31
2019-05-23T06:48:18.133Z,26.41
2019-05-23T06:50:47.701Z,27.23
2019-05-23T06:53:16.283Z,27.48
2019-05-23T06:55:49.326Z,28.15
2019-05-23T06:58:18.040Z,28.33
2019-05-23T07:00:49.426Z,28.88
2019-05-23T07:03:18.604Z,28.79
2019-05-23T07:05:47.188Z,28.22
2019-05-23T07:08:15.661Z,28.23
2019-05-23T07:10:44.822Z,28.26
2019-05-23T07:13:18.817Z,28.98
2019-05-23T07:15:47.280Z,28.87
2019-05-23T07:18:15.719Z,27.94
2019-05-23T07:20:44.782Z,28.65
2019-05-23T07:23:18.145Z,27.86
2019-05-23T07:25:49.195Z,28.62
2019-05-23T07:28:16.973Z,29.51
2019-05-23T07:30:46.087Z,29.13
2019-05-23T07:33:17.767Z,30.39
2019-05-23T07:35:45.460Z,28.53
2019-05-23T07:38:19.156Z,29.03
2019-05-23T07:40:48.725Z,28.74
2019-05-23T07:43:17.583Z,29.04
2019-05-23T07:46:00.241Z,28.29
2019-05-23T07:48:29.270Z,27.53
2019-05-23T07:50:58.149Z,28.22
2019-05-23T07:53:28.270Z,29.07
2019-05-23T07:56:03.564Z,30.63
2019-05-23T07:58:31.469Z,30.97
2019-05-23T08:01:07.354Z,31.13
2019-05-23T08:03:39.720Z,29.90
2019-05-23T08:06:08.891Z,28.40
2019-05-23T08:08:37.452Z,29.00
2019-05-23T08:11:13.942Z,27.78
2019-05-23T08:13:42.934Z,27.56
2019-05-23T08:16:11.416Z,26.04
2019-05-23T08:18:39.989Z,26.38
2019-05-23T08:21:08.392Z,26.76
2019-05-23T08:23:36.851Z,27.62
2019-05-23T08:26:05.322Z,28.20
2019-05-23T08:28:33.920Z,27.76
2019-05-23T08:31:02.895Z,26.01
2019-05-23T08:33:31.506Z,25.27
2019-05-23T08:36:00.094Z,23.96
2019-05-23T08:38:29.293Z,23.06
2019-05-23T08:40:58.753Z,22.44
2019-05-23T08:43:27.176Z,22.40
2019-05-23T08:45:55.916Z,22.06
2019-05-23T08:48:24.910Z,21.76
2019-05-23T08:50:53.502Z,21.27
2019-05-23T08:53:22.173Z,21.68
2019-05-23T08:55:51.700Z,21.00
2019-05-23T08:58:20.607Z,21.17
2019-05-23T09:00:49.631Z,21.08
2019-05-23T09:03:19.140Z,20.79
2019-05-23T09:05:54.463Z,20.43
2019-05-23T09:08:24.433Z,20.23
2019-05-23T09:10:52.843Z,20.32
2019-05-23T09:13:26.321Z,20.29
2019-05-23T09:15:57.773Z,20.24
2019-05-23T09:18:26.413Z,19.92
2019-05-23T09:20:55.286Z,20.44
2019-05-23T09:23:23.781Z,20.27
2019-05-23T09:25:52.239Z,19.87
2019-05-23T09:28:20.810Z,20.49
2019-05-23T09:30:53.239Z,20.62
2019-05-23T09:33:21.736Z,20.42
2019-05-23T09:35:50.356Z,20.50
2019-05-23T09:38:19.455Z,20.39
2019-05-23T09:40:47.854Z,20.34
2019-05-23T09:43:16.412Z,20.21
2019-05-23T09:45:44.807Z,20.51
2019-05-23T09:48:13.270Z,20.34
2019-05-23T09:50:42.887Z,20.67
2019-05-23T09:53:11.297Z,20.61
2019-05-23T09:55:39.784Z,20.05
2019-05-23T09:58:08.632Z,20.36
2019-05-23T10:00:42.923Z,20.27
2019-05-23T10:03:11.322Z,20.64
2019-05-23T10:05:43.275Z,20.73
2019-05-23T10:08:10.035Z,20.24
2019-05-23T10:10:38.470Z,20.13
2019-05-23T10:13:07.053Z,20.60
2019-05-23T10:15:39.835Z,20.71
2019-05-23T10:18:10.107Z,20.99
2019-05-23T10:20:39.894Z,20.79
2019-05-23T10:23:10.142Z,21.22
2019-05-23T10:25:38.459Z,21.11
2019-05-23T10:28:07.329Z,21.11
2019-05-23T10:30:38.426Z,21.13
2019-05-23T10:33:12.309Z,20.95
2019-05-23T10:35:37.617Z,21.10
2019-05-23T10:38:06.267Z,21.43
2019-05-23T10:40:37.772Z,21.02
2019-05-23T10:43:09.126Z,21.05
2019-05-23T10:45:38.499Z,21.03
2019-05-23T10:48:08.944Z,20.92
2019-05-23T10:50:44.923Z,21.30
2019-05-23T10:53:09.010Z,21.57
2019-05-23T10:55:37.448Z,21.71
2019-05-23T10:58:10.946Z,21.53
2019-05-23T11:00:43.092Z,21.68
2019-05-23T11:03:13.063Z,21.61
2019-05-23T11:05:44.449Z,22.11
2019-05-23T11:08:12.942Z,22.06
2019-05-23T11:10:42.396Z,22.09
2019-05-23T11:13:10.984Z,22.11
2019-05-23T11:15:39.472Z,21.91
2019-05-23T11:18:10.060Z,21.87
2019-05-23T11:20:38.798Z,21.87
2019-05-23T11:23:07.858Z,22.07
2019-05-23T11:25:39.595Z,22.24
2019-05-23T11:28:10.826Z,22.33
2019-05-23T11:30:50.153Z,22.13
2019-05-23T11:33:19.104Z,22.14
2019-05-23T11:35:50.229Z,21.78
2019-05-23T11:38:18.850Z,21.94
2019-05-23T11:40:47.635Z,21.34
2019-05-23T11:43:16.249Z,21.21
2019-05-23T11:45:49.189Z,21.52
2019-05-23T11:48:18.530Z,21.47
2019-05-23T11:50:55.097Z,21.75
2019-05-23T11:53:23.668Z,21.81
2019-05-23T11:55:54.409Z,21.53
2019-05-23T11:58:22.597Z,21.42
2019-05-23T12:00:55.802Z,21.58
2019-05-23T12:03:26.802Z,21.99
2019-05-23T12:05:55.388Z,21.99
2019-05-23T12:08:23.929Z,22.02
2019-05-23T12:48:27.875Z,22.50
2019-05-23T12:51:06.206Z,22.93
2019-05-23T12:53:34.653Z,23.02
2019-05-23T12:56:05.170Z,22.68
2019-05-23T12:58:34.001Z,22.75
2019-05-23T13:01:07.806Z,22.99
2019-05-23T13:03:36.803Z,22.96
2019-05-23T13:06:05.533Z,22.74
2019-05-23T13:08:34.125Z,22.85
2019-05-23T13:11:02.603Z,22.96
2019-05-23T13:13:31.021Z,23.31
2019-05-23T13:15:59.421Z,23.33
2019-05-23T13:18:28.101Z,22.99
2019-05-23T13:20:59.572Z,22.84
2019-05-23T13:23:27.753Z,22.99
2019-05-23T13:25:56.220Z,23.07
2019-05-23T13:28:24.899Z,23.04
2019-05-23T13:30:53.495Z,22.79
2019-05-23T13:33:22.167Z,22.56
2019-05-23T13:35:51.240Z,22.56
2019-05-23T13:38:20.192Z,22.47
2019-05-23T13:40:48.608Z,22.83
2019-05-23T13:43:17.366Z,22.80
2019-05-23T13:45:53.234Z,22.86
2019-05-23T13:48:21.653Z,22.57
2019-05-23T13:50:50.253Z,22.53
2019-05-23T13:53:22.710Z,22.55
2019-05-23T13:55:51.558Z,22.64
2019-05-23T13:58:20.424Z,22.72
2019-05-23T14:00:52.857Z,22.82
2019-05-23T14:03:21.430Z,22.75
2019-05-23T14:05:50.280Z,23.00
2019-05-23T14:08:19.512Z,22.99
2019-05-23T14:13:15.553Z,22.71
2019-05-23T14:15:45.804Z,22.40
2019-05-23T14:18:15.897Z,22.49
2019-05-23T14:20:44.316Z,22.43
2019-05-23T14:23:23.879Z,22.41
2019-05-23T14:25:52.777Z,22.55
2019-05-23T14:28:21.549Z,22.46
2019-05-23T14:30:54.073Z,22.55
2019-05-23T14:33:26.545Z,22.63
2019-05-23T14:36:01.282Z,22.62
2019-05-23T14:38:35.492Z,22.42
2019-05-23T14:41:07.856Z,22.24
2019-05-23T14:43:37.576Z,22.33
2019-05-23T14:46:10.036Z,22.53
2019-05-23T14:48:43.390Z,22.83
2019-05-23T14:51:30.081Z,22.59
2019-05-23T14:54:04.137Z,22.37
2019-05-23T14:56:34.198Z,22.22
2019-05-23T14:59:03.061Z,22.25
2019-05-23T15:01:33.117Z,22.78
2019-05-23T15:04:02.551Z,22.59
2019-05-23T15:06:31.669Z,22.60
2019-05-23T15:09:04.889Z,22.74
2019-05-23T15:11:33.428Z,22.68
2019-05-23T15:14:04.903Z,22.50
2019-05-23T15:16:33.664Z,22.44
2019-05-23T15:19:02.276Z,22.56
2019-05-23T15:21:30.858Z,22.68
2019-05-23T15:23:59.253Z,22.85
2019-05-23T15:26:27.946Z,22.73
2019-05-23T15:28:58.954Z,22.73
2019-05-23T15:31:28.636Z,22.89
2019-05-23T15:33:58.976Z,22.58
2019-05-23T15:36:27.691Z,22.68
2019-05-23T15:39:08.831Z,22.70
2019-05-23T15:41:28.711Z,22.84
2019-05-23T15:43:59.157Z,22.42
2019-05-23T15:46:28.891Z,22.21
2019-05-23T15:49:06.769Z,21.92
2019-05-23T15:51:40.781Z,22.01
2019-05-23T15:54:10.901Z,21.84
2019-05-23T15:56:45.144Z,21.76
2019-05-23T15:59:30.514Z,21.72
2019-05-23T16:02:17.232Z,21.54
2019-05-23T16:04:52.121Z,21.92
2019-05-23T16:07:21.379Z,21.93
2019-05-23T16:09:49.816Z,21.85
2019-05-23T16:12:18.541Z,21.65
2019-05-23T16:14:54.773Z,21.82
2019-05-23T16:17:23.373Z,21.81
2019-05-23T16:19:53.952Z,22.19
2019-05-23T16:22:22.517Z,22.17
2019-05-23T16:24:51.186Z,21.89
2019-05-23T16:27:27.839Z,21.99
2019-05-23T16:29:54.963Z,21.90
2019-05-23T16:32:23.402Z,21.50
2019-05-23T16:34:51.822Z,21.21
2019-05-23T16:37:20.233Z,21.04
2019-05-23T16:39:52.098Z,21.12
2019-05-23T16:42:20.583Z,21.12
2019-05-23T16:44:52.861Z,21.16
2019-05-23T16:47:25.393Z,21.23
2019-05-23T16:49:55.106Z,21.12
2019-05-23T16:52:24.086Z,20.98
2019-05-23T16:54:54.336Z,20.96
2019-05-23T16:57:24.566Z,20.94
2019-05-23T17:00:00.068Z,20.81
2019-05-23T17:02:30.149Z,20.78
2019-05-23T17:05:10.032Z,21.06
2019-05-23T17:07:41.078Z,21.09
2019-05-23T17:10:20.516Z,20.71
2019-05-23T17:12:53.026Z,20.84
2019-05-23T17:15:29.058Z,20.48
2019-05-23T17:18:15.174Z,20.54
2019-05-23T17:20:48.367Z,20.42
2019-05-23T17:23:21.444Z,20.32
2019-05-23T17:26:00.868Z,20.53
2019-05-23T17:28:37.498Z,20.54
2019-05-23T17:31:14.561Z,20.41
2019-05-23T17:33:45.527Z,20.71
2019-05-23T17:36:13.902Z,20.57
2019-05-23T17:38:42.466Z,20.41
2019-05-23T17:41:11.137Z,20.54
2019-05-23T17:43:40.616Z,20.61
2019-05-23T17:46:09.022Z,20.36
2019-05-23T17:48:37.468Z,20.27
2019-05-23T17:51:05.882Z,20.24
2019-05-23T17:53:34.456Z,19.91
2019-05-23T17:56:03.290Z,19.81
2019-05-23T17:58:35.159Z,19.63
2019-05-23T18:01:05.292Z,19.68
2019-05-23T18:03:34.068Z,19.43
2019-05-23T18:06:02.562Z,19.54
2019-05-23T18:08:36.803Z,19.41
2019-05-23T18:11:06.164Z,19.41
2019-05-23T18:13:35.675Z,19.17
2019-05-23T18:16:10.010Z,19.28
2019-05-23T18:18:38.417Z,19.19
2019-05-23T18:21:07.296Z,18.93
2019-05-23T18:23:37.744Z,18.95
2019-05-23T18:26:07.790Z,18.83
2019-05-23T18:28:36.823Z,18.79
2019-05-23T18:31:16.377Z,16.33
2019-05-23T18:33:45.586Z,18.50
2019-05-23T18:36:14.282Z,18.43
2019-05-23T18:38:42.856Z,18.35
2019-05-23T18:41:12.111Z,18.39
2019-05-23T18:43:41.909Z,18.37
2019-05-23T18:46:12.767Z,18.20
2019-05-23T18:48:41.460Z,18.19
2019-05-23T18:51:11.171Z,18.21
2019-05-23T18:53:39.680Z,18.04
2019-05-23T18:56:08.323Z,17.92
2019-05-23T18:58:38.950Z,17.86
2019-05-23T19:01:14.853Z,17.79
2019-05-23T19:03:44.683Z,17.73
2019-05-23T19:06:14.448Z,17.52
2019-05-23T19:08:45.592Z,17.51
2019-05-23T19:11:20.795Z,17.44
2019-05-23T19:13:56.706Z,17.32
2019-05-23T19:16:29.280Z,17.19
2019-05-23T19:18:58.339Z,17.11
2019-05-23T19:21:28.787Z,17.02
2019-05-23T19:23:58.383Z,16.83
2019-05-23T19:26:29.305Z,16.70
2019-05-23T19:28:58.846Z,16.53
2019-05-23T19:31:29.865Z,16.45
2019-05-23T19:33:58.567Z,16.29
2019-05-23T19:36:29.641Z,16.17
2019-05-23T19:38:58.101Z,16.14
2019-05-23T19:41:37.277Z,15.95
2019-05-23T19:44:01.156Z,15.95
2019-05-23T19:46:30.728Z,15.79
2019-05-23T19:49:02.043Z,15.62
2019-05-23T19:51:31.931Z,15.49
2019-05-23T19:54:00.440Z,15.50
2019-05-23T19:56:29.296Z,15.40
2019-05-23T19:59:03.318Z,15.29
2019-05-23T20:01:34.420Z,15.35
2019-05-23T20:04:03.570Z,15.27
2019-05-23T20:06:32.010Z,15.26
2019-05-23T20:09:04.989Z,15.15
2019-05-23T20:11:33.654Z,14.06
2019-05-23T20:14:03.198Z,14.87
2019-05-23T20:16:34.267Z,14.79
2019-05-23T20:19:06.369Z,14.79
2019-05-23T20:21:35.129Z,14.67
2019-05-23T20:24:05.986Z,14.63
2019-05-23T20:26:38.125Z,14.49
2019-05-23T20:29:09.164Z,14.38
2019-05-23T20:31:42.838Z,14.30
2019-05-23T20:34:11.743Z,14.35
2019-05-23T20:36:41.229Z,14.36
2019-05-23T20:39:09.826Z,14.19
2019-05-23T20:41:38.706Z,14.01
2019-05-23T20:44:07.304Z,13.93
2019-05-23T20:46:35.995Z,13.78
2019-05-23T20:49:04.472Z,13.74
2019-05-23T20:51:33.232Z,13.64
2019-05-23T20:54:03.033Z,13.70
2019-05-23T20:56:32.788Z,13.40
2019-05-23T20:59:01.536Z,13.80
2019-05-23T21:01:36.986Z,13.61
2019-05-23T21:04:09.581Z,13.54
2019-05-23T21:06:47.816Z,13.51
2019-05-23T21:09:17.880Z,13.55
2019-05-23T21:11:51.413Z,13.53
2019-05-23T21:14:21.349Z,13.53
2019-05-23T21:16:49.750Z,13.39
2019-05-23T21:19:18.166Z,13.32
2019-05-23T21:21:46.639Z,13.36
2019-05-23T21:24:15.123Z,13.28
2019-05-23T21:26:45.935Z,13.24
2019-05-23T21:29:13.674Z,13.24
2019-05-23T21:31:42.193Z,13.24
2019-05-23T21:34:12.400Z,13.20
2019-05-23T21:36:40.814Z,13.18
2019-05-23T21:39:11.438Z,13.09
2019-05-23T21:41:40.217Z,13.02
2019-05-23T21:44:08.609Z,13.05
2019-05-23T21:46:37.018Z,13.02
2019-05-23T21:49:05.591Z,12.99
2019-05-23T21:51:34.371Z,12.98
2019-05-23T21:54:03.987Z,12.97
2019-05-23T21:56:32.383Z,12.95
2019-05-23T21:59:01.069Z,12.92
2019-05-23T22:01:31.155Z,12.85
2019-05-23T22:04:17.727Z,12.83
2019-05-23T22:06:55.623Z,12.76
2019-05-23T22:09:24.357Z,12.73
2019-05-23T22:11:53.804Z,12.72
2019-05-23T22:14:22.224Z,12.66
2019-05-23T22:16:51.398Z,12.60
2019-05-23T22:19:26.590Z,12.57
2019-05-23T22:21:54.475Z,12.54
2019-05-23T22:24:22.967Z,12.46
2019-05-23T22:26:51.395Z,12.58
2019-05-23T22:29:19.907Z,12.53
2019-05-23T22:31:48.446Z,12.51
2019-05-23T22:34:27.969Z,12.14
2019-05-23T22:36:56.673Z,12.29
2019-05-23T22:39:25.159Z,12.40
2019-05-23T22:41:53.824Z,12.19
2019-05-23T22:44:22.216Z,12.29
2019-05-23T22:46:50.635Z,12.38
2019-05-23T22:49:19.155Z,12.29
2019-05-23T22:51:47.675Z,12.28
2019-05-23T22:54:16.073Z,12.27
2019-05-23T22:56:46.994Z,12.30
2019-05-23T22:59:14.620Z,12.25
2019-05-23T23:01:44.713Z,12.28
2019-05-23T23:04:15.519Z,12.25
2019-05-23T23:06:44.025Z,12.30
2019-05-23T23:09:12.489Z,12.28
2019-05-23T23:11:40.896Z,12.31
2019-05-23T23:14:09.294Z,12.28
2019-05-23T23:16:38.778Z,12.20
2019-05-23T23:19:08.044Z,12.27
2019-05-23T23:21:39.150Z,12.15
2019-05-23T23:24:07.639Z,12.09
2019-05-23T23:26:36.042Z,11.98
2019-05-23T23:29:08.580Z,11.88
2019-05-23T23:31:36.250Z,11.94
2019-05-23T23:34:04.788Z,11.75
2019-05-23T23:36:33.205Z,11.76
2019-05-23T23:39:01.740Z,11.66
2019-05-23T23:41:31.135Z,11.68
2019-05-23T23:44:00.165Z,11.74
2019-05-23T23:46:50.619Z,11.67
2019-05-23T23:49:37.112Z,11.73
2019-05-23T23:52:23.314Z,11.82
2019-05-23T23:55:09.916Z,11.83
2019-05-23T23:57:56.192Z,11.76
